Time;durP1;ratioP1;P1;durP2;ratioP2;P2;SDS_P1;SDS_P2;PMS_P1;PMS_P2;Temp;Humidity;BMP_temperature;BMP_pressure;BME280_temperature;BME280_humidity;BME280_pressure;Samples;Min_cycle;Max_cycle;Signal;HPM_P1;HPM_P2
2023/07/06 00:02:05;;;;;;;0.10;0.10;;;13.00;59.80;;;;;;5050604;28;20233;-57
2023/07/06 00:04:36;;;;;;;0.17;0.17;;;13.10;59.90;;;;;;5051306;28;20207;-53
2023/07/06 00:07:07;;;;;;;0.10;0.10;;;13.10;60.00;;;;;;5050764;28;20287;-57
2023/07/06 00:09:38;;;;;;;0.10;0.10;;;13.10;60.00;;;;;;5050184;28;20848;-58
2023/07/06 00:12:09;;;;;;;0.10;0.10;;;13.10;59.90;;;;;;5049977;28;20258;-56
2023/07/06 00:14:41;;;;;;;0.20;0.20;;;13.20;59.90;;;;;;5035858;28;20777;-57
2023/07/06 00:17:14;;;;;;;0.10;0.10;;;13.20;59.90;;;;;;5049400;28;20191;-54
2023/07/06 00:19:46;;;;;;;0.10;0.10;;;13.20;60.00;;;;;;5050645;28;20274;-57
2023/07/06 00:22:18;;;;;;;0.10;0.10;;;13.20;60.00;;;;;;5049447;28;20243;-56
2023/07/06 00:24:49;;;;;;;0.10;0.10;;;13.20;60.00;;;;;;5050232;28;20218;-58
2023/07/06 00:27:20;;;;;;;0.10;0.10;;;13.30;60.10;;;;;;5050018;28;20249;-58
2023/07/06 00:30:08;;;;;;;0.10;0.10;;;13.30;60.20;;;;;;5049862;28;20196;-58
2023/07/06 00:32:38;;;;;;;0.10;0.10;;;13.30;60.20;;;;;;5051999;28;20798;-54
2023/07/06 00:35:10;;;;;;;0.10;0.10;;;13.40;60.20;;;;;;5054779;28;20195;-58
2023/07/06 00:37:41;;;;;;;0.10;0.10;;;13.40;60.20;;;;;;5051717;28;20624;-55
2023/07/06 00:40:15;;;;;;;0.10;0.10;;;13.40;60.30;;;;;;5053666;28;20196;-54
2023/07/06 00:42:46;;;;;;;0.15;0.15;;;13.40;60.30;;;;;;5053398;28;20282;-57
2023/07/06 00:45:18;;;;;;;0.10;0.10;;;13.40;60.40;;;;;;5053653;28;20227;-57
2023/07/06 00:47:52;;;;;;;0.10;0.10;;;13.50;60.40;;;;;;5053144;28;20198;-57
2023/07/06 00:50:25;;;;;;;0.10;0.10;;;13.50;60.30;;;;;;5054479;28;20290;-58
2023/07/06 00:53:08;;;;;;;0.10;0.10;;;13.50;60.20;;;;;;5053627;28;20211;-58
2023/07/06 00:55:42;;;;;;;0.10;0.10;;;13.50;60.10;;;;;;5046565;28;20228;-58
2023/07/06 00:58:18;;;;;;;0.10;0.10;;;13.50;60.10;;;;;;5053644;28;20219;-57
2023/07/06 01:00:51;;;;;;;0.15;0.15;;;13.60;60.10;;;;;;5053875;28;20603;-58
2023/07/06 01:03:22;;;;;;;0.10;0.10;;;13.60;60.10;;;;;;5053444;28;20223;-58
2023/07/06 01:05:54;;;;;;;0.10;0.10;;;13.60;60.20;;;;;;5053995;28;20195;-58
2023/07/06 01:08:25;;;;;;;0.10;0.10;;;13.60;60.30;;;;;;5053654;28;20196;-57
2023/07/06 01:10:59;;;;;;;0.10;0.10;;;13.70;60.30;;;;;;5053515;28;20198;-58
2023/07/06 01:13:32;;;;;;;0.10;0.10;;;13.70;60.40;;;;;;5052692;28;20215;-58
2023/07/06 01:16:11;;;;;;;0.20;0.20;;;13.70;60.40;;;;;;5053367;28;20314;-58
2023/07/06 01:18:52;;;;;;;0.10;0.10;;;13.70;60.30;;;;;;5053132;28;20678;-59
2023/07/06 01:21:30;;;;;;;0.10;0.10;;;13.80;60.40;;;;;;5053124;28;20203;-58
2023/07/06 01:24:18;;;;;;;0.10;0.10;;;13.80;60.40;;;;;;5034017;28;20273;-58
2023/07/06 01:27:17;;;;;;;0.10;0.10;;;13.80;60.50;;;;;;5035363;28;20205;-53
2023/07/06 01:30:15;;;;;;;0.10;0.10;;;13.80;60.60;;;;;;5053444;28;20199;-57
2023/07/06 01:32:54;;;;;;;0.10;0.10;;;13.90;60.60;;;;;;5049244;28;20303;-58
2023/07/06 01:35:29;;;;;;;0.10;0.10;;;13.80;60.40;;;;;;5052971;28;20196;-54
2023/07/06 01:38:00;;;;;;;0.10;0.10;;;13.90;60.40;;;;;;5052654;28;20198;-57
2023/07/06 01:40:31;;;;;;;0.10;0.10;;;13.90;60.40;;;;;;5053005;28;20195;-58
2023/07/06 01:43:01;;;;;;;0.10;0.10;;;13.90;60.40;;;;;;5051136;28;20234;-54
2023/07/06 01:45:33;;;;;;;0.10;0.10;;;13.90;60.30;;;;;;5052292;28;20207;-57
2023/07/06 01:48:07;;;;;;;0.10;0.10;;;14.00;60.40;;;;;;5052505;28;20237;-54
2023/07/06 01:50:44;;;;;;;0.10;0.10;;;14.00;60.50;;;;;;5053246;28;20190;-58
2023/07/06 01:53:24;;;;;;;0.10;0.10;;;14.00;60.60;;;;;;5053308;28;20272;-57
2023/07/06 01:56:01;;;;;;;0.10;0.10;;;14.00;60.70;;;;;;5052035;28;20194;-57
2023/07/06 01:58:39;;;;;;;0.10;0.10;;;14.10;60.70;;;;;;5052950;28;20264;-55
2023/07/06 02:01:14;;;;;;;0.10;0.10;;;14.10;60.60;;;;;;5052475;28;20203;-55
2023/07/06 02:03:48;;;;;;;0.10;0.10;;;14.10;60.50;;;;;;5051633;28;20313;-56
2023/07/06 02:06:22;;;;;;;0.10;0.10;;;14.10;60.40;;;;;;5052361;28;20210;-58
2023/07/06 02:08:54;;;;;;;0.10;0.10;;;14.10;60.30;;;;;;5052285;28;20295;-57
2023/07/06 02:11:25;;;;;;;0.20;0.20;;;14.20;60.40;;;;;;5052209;28;20202;-59
2023/07/06 02:13:56;;;;;;;0.10;0.10;;;14.20;60.40;;;;;;5052152;28;20231;-57
2023/07/06 02:16:26;;;;;;;0.10;0.10;;;14.20;60.30;;;;;;5052352;28;20575;-57
2023/07/06 02:19:01;;;;;;;0.10;0.10;;;14.20;60.30;;;;;;5052506;28;20241;-59
2023/07/06 02:21:32;;;;;;;0.10;0.10;;;14.30;60.30;;;;;;5051727;28;20186;-57
2023/07/06 02:24:03;;;;;;;0.10;0.10;;;14.30;60.30;;;;;;5051384;28;20231;-59
2023/07/06 02:26:33;;;;;;;0.10;0.10;;;14.30;60.20;;;;;;5051953;28;20256;-58
2023/07/06 02:29:04;;;;;;;0.10;0.10;;;14.30;60.20;;;;;;5051924;28;20198;-56
2023/07/06 02:31:35;;;;;;;0.10;0.10;;;14.30;60.20;;;;;;5051557;28;20188;-57
2023/07/06 02:34:07;;;;;;;0.10;0.10;;;14.40;60.40;;;;;;5051844;28;20527;-58
2023/07/06 02:36:39;;;;;;;0.10;0.10;;;14.40;60.40;;;;;;5032765;28;20199;-59
2023/07/06 02:39:09;;;;;;;0.10;0.10;;;14.40;60.30;;;;;;5048806;28;20227;-60
2023/07/06 02:41:40;;;;;;;0.10;0.10;;;14.40;60.30;;;;;;5051449;28;20191;-59
2023/07/06 02:44:11;;;;;;;0.10;0.10;;;14.40;60.30;;;;;;5051147;28;20223;-59
2023/07/06 02:46:41;;;;;;;0.10;0.10;;;14.40;60.20;;;;;;5050536;28;20192;-58
2023/07/06 02:49:14;;;;;;;0.10;0.10;;;14.50;60.20;;;;;;5051702;28;20191;-58
2023/07/06 02:51:46;;;;;;;0.10;0.10;;;14.50;60.20;;;;;;5051141;28;20234;-58
2023/07/06 02:54:17;;;;;;;0.10;0.10;;;14.50;60.20;;;;;;5051744;28;20313;-54
2023/07/06 02:56:48;;;;;;;0.10;0.10;;;14.50;60.20;;;;;;5051032;28;20195;-59
2023/07/06 02:59:19;;;;;;;0.10;0.10;;;14.50;60.20;;;;;;5050909;28;20195;-59
2023/07/06 03:01:49;;;;;;;0.10;0.10;;;14.50;60.20;;;;;;5051796;28;20209;-59
2023/07/06 03:04:22;;;;;;;0.10;0.10;;;14.50;60.10;;;;;;5051390;28;20289;-60
2023/07/06 03:06:55;;;;;;;0.08;0.08;;;14.50;60.10;;;;;;5051005;28;20199;-60
2023/07/06 03:09:27;;;;;;;0.10;0.10;;;14.60;60.10;;;;;;5051464;28;20647;-59
2023/07/06 03:11:57;;;;;;;0.10;0.10;;;14.60;60.10;;;;;;5051309;28;20604;-58
2023/07/06 03:14:28;;;;;;;0.10;0.10;;;14.60;60.10;;;;;;5051704;28;20562;-57
2023/07/06 03:16:58;;;;;;;0.10;0.10;;;14.60;60.10;;;;;;5051600;28;20200;-57
2023/07/06 03:19:31;;;;;;;0.10;0.10;;;14.60;60.20;;;;;;5051557;28;20199;-59
2023/07/06 03:22:02;;;;;;;0.10;0.10;;;14.60;60.20;;;;;;5051907;28;20527;-59
2023/07/06 03:24:33;;;;;;;0.10;0.10;;;14.60;60.30;;;;;;5051420;28;20247;-56
2023/07/06 03:27:06;;;;;;;0.10;0.10;;;14.70;60.30;;;;;;5051220;28;20219;-60
2023/07/06 03:29:37;;;;;;;0.10;0.10;;;14.70;60.20;;;;;;5051650;28;20582;-55
2023/07/06 03:32:08;;;;;;;0.10;0.10;;;14.70;60.20;;;;;;5050880;28;20215;-57
2023/07/06 03:34:41;;;;;;;0.10;0.10;;;14.70;60.10;;;;;;5050905;28;20199;-58
2023/07/06 03:37:11;;;;;;;0.10;0.10;;;14.70;60.10;;;;;;5050879;28;20207;-57
2023/07/06 03:39:42;;;;;;;0.10;0.10;;;14.70;60.10;;;;;;5050712;28;20200;-56
2023/07/06 03:42:12;;;;;;;0.10;0.10;;;14.70;60.00;;;;;;5051204;28;20215;-58
2023/07/06 03:44:43;;;;;;;0.10;0.10;;;14.70;59.90;;;;;;5051279;28;20723;-58
2023/07/06 03:47:14;;;;;;;0.10;0.10;;;14.70;59.90;;;;;;5050120;28;20199;-56
2023/07/06 03:49:47;;;;;;;0.10;0.10;;;14.70;59.90;;;;;;5046408;28;20196;-57
2023/07/06 03:52:18;;;;;;;0.10;0.10;;;14.70;59.80;;;;;;5042573;28;20212;-56
2023/07/06 03:54:49;;;;;;;0.10;0.10;;;14.70;59.80;;;;;;5050578;28;20245;-58
2023/07/06 03:57:20;;;;;;;0.10;0.10;;;14.70;59.80;;;;;;5031262;28;20188;-58
2023/07/06 03:59:50;;;;;;;0.10;0.10;;;14.80;59.90;;;;;;5040312;28;20557;-57
2023/07/06 04:02:22;;;;;;;0.10;0.10;;;14.70;60.00;;;;;;5050491;28;20306;-58
2023/07/06 04:04:55;;;;;;;0.00;0.00;;;14.70;60.00;;;;;;5050279;28;20674;-60
2023/07/06 04:07:26;;;;;;;0.10;0.10;;;14.80;60.00;;;;;;5048142;28;20230;-60
2023/07/06 04:09:57;;;;;;;0.10;0.10;;;14.80;60.10;;;;;;5044710;28;20402;-55
2023/07/06 04:12:27;;;;;;;0.20;0.20;;;14.80;60.10;;;;;;5055295;28;20211;-57
2023/07/06 04:14:58;;;;;;;0.15;0.15;;;14.80;60.00;;;;;;5054580;28;20633;-58
2023/07/06 04:17:29;;;;;;;0.10;0.10;;;14.80;60.00;;;;;;5054395;28;20192;-60
2023/07/06 04:20:01;;;;;;;0.10;0.10;;;14.80;59.90;;;;;;5054551;28;20199;-58
2023/07/06 04:22:32;;;;;;;0.10;0.10;;;14.80;60.60;;;;;;5054723;28;20302;-60
2023/07/06 04:25:03;;;;;;;0.10;0.10;;;14.90;59.90;;;;;;5054928;28;20706;-59
2023/07/06 04:27:33;;;;;;;0.08;0.08;;;14.90;59.80;;;;;;5053632;28;20647;-58
2023/07/06 04:30:04;;;;;;;0.10;0.10;;;14.90;59.80;;;;;;5054310;28;20195;-58
2023/07/06 04:32:35;;;;;;;0.10;0.10;;;14.90;59.80;;;;;;5053254;28;20785;-59
2023/07/06 04:35:08;;;;;;;0.10;0.10;;;14.90;59.80;;;;;;5054010;28;20226;-59
2023/07/06 04:37:41;;;;;;;0.10;0.10;;;14.90;59.80;;;;;;5053733;28;20278;-56
2023/07/06 04:40:13;;;;;;;0.10;0.10;;;14.90;59.70;;;;;;5053311;28;20203;-60
2023/07/06 04:42:44;;;;;;;0.00;0.00;;;14.90;59.70;;;;;;5054030;28;20656;-57
2023/07/06 04:45:15;;;;;;;0.10;0.10;;;15.00;59.70;;;;;;5047285;28;20368;-54
2023/07/06 04:47:46;;;;;;;0.10;0.10;;;15.00;59.60;;;;;;5054114;28;20199;-59
2023/07/06 04:50:22;;;;;;;0.10;0.10;;;15.00;59.50;;;;;;5053155;28;20562;-58
2023/07/06 04:52:55;;;;;;;0.10;0.10;;;15.00;59.50;;;;;;5053638;28;20310;-60
2023/07/06 04:55:27;;;;;;;0.10;0.10;;;15.00;59.50;;;;;;5053346;28;20275;-60
2023/07/06 04:58:01;;;;;;;0.10;0.10;;;15.00;59.50;;;;;;5052713;28;20709;-54
2023/07/06 05:00:34;;;;;;;0.10;0.10;;;15.00;59.40;;;;;;5052947;28;20670;-59
2023/07/06 05:03:06;;;;;;;0.10;0.10;;;15.00;59.40;;;;;;5053978;28;20627;-57
2023/07/06 05:05:40;;;;;;;0.10;0.10;;;15.00;59.30;;;;;;5053680;28;20228;-60
2023/07/06 05:08:13;;;;;;;0.05;0.05;;;15.00;59.40;;;;;;5054682;28;20294;-56
2023/07/06 05:10:44;;;;;;;0.10;0.10;;;15.00;59.50;;;;;;5053458;28;20310;-57
2023/07/06 05:13:14;;;;;;;0.10;0.10;;;15.00;59.50;;;;;;5053281;28;20625;-60
2023/07/06 05:15:46;;;;;;;0.10;0.10;;;15.00;59.50;;;;;;5053883;28;20203;-57
2023/07/06 05:18:19;;;;;;;0.10;0.10;;;15.00;59.50;;;;;;5052641;28;20192;-60
2023/07/06 05:20:51;;;;;;;0.10;0.10;;;15.00;59.40;;;;;;5052510;28;20679;-59
2023/07/06 05:23:22;;;;;;;0.08;0.08;;;15.00;59.40;;;;;;5052779;28;20626;-57
2023/07/06 05:25:56;;;;;;;0.10;0.10;;;15.00;59.40;;;;;;5051711;28;20227;-59
2023/07/06 05:28:29;;;;;;;0.10;0.10;;;15.00;59.40;;;;;;5052975;28;20375;-57
2023/07/06 05:31:00;;;;;;;0.10;0.10;;;15.00;59.40;;;;;;5044329;28;20200;-59
2023/07/06 05:33:32;;;;;;;0.10;0.10;;;15.00;59.40;;;;;;5032819;28;20282;-57
2023/07/06 05:36:06;;;;;;;0.10;0.10;;;15.00;59.30;;;;;;5046222;28;20222;-59
2023/07/06 05:38:36;;;;;;;0.10;0.10;;;15.00;59.30;;;;;;5053331;28;20192;-59
2023/07/06 05:41:07;;;;;;;0.10;0.10;;;15.00;59.30;;;;;;5051671;28;20199;-59
2023/07/06 05:43:38;;;;;;;0.10;0.10;;;15.00;59.20;;;;;;5052833;28;20219;-60
2023/07/06 05:46:08;;;;;;;0.10;0.10;;;15.00;59.10;;;;;;5051881;28;20219;-60
2023/07/06 05:48:39;;;;;;;0.10;0.10;;;14.90;58.90;;;;;;5052941;28;20195;-59
2023/07/06 05:51:12;;;;;;;0.10;0.10;;;14.90;58.90;;;;;;5051517;28;20647;-60
2023/07/06 05:53:42;;;;;;;0.10;0.10;;;14.90;58.80;;;;;;5053339;28;20223;-61
2023/07/06 05:56:13;;;;;;;0.10;0.10;;;14.90;58.80;;;;;;5052581;28;20211;-59
2023/07/06 05:58:44;;;;;;;0.10;0.10;;;14.90;58.80;;;;;;5052653;28;20750;-59
2023/07/06 06:01:15;;;;;;;0.10;0.10;;;14.90;58.70;;;;;;5051887;28;20257;-58
2023/07/06 06:03:46;;;;;;;0.10;0.10;;;14.90;58.70;;;;;;5052474;28;20227;-59
2023/07/06 06:06:18;;;;;;;0.10;0.10;;;14.90;58.80;;;;;;5051272;28;20586;-58
2023/07/06 06:08:51;;;;;;;0.10;0.10;;;14.90;58.80;;;;;;5052430;28;20203;-58
2023/07/06 06:11:22;;;;;;;0.05;0.05;;;14.90;58.80;;;;;;5052959;28;20196;-57
2023/07/06 06:13:55;;;;;;;0.10;0.10;;;14.80;58.80;;;;;;5052258;28;20223;-59
2023/07/06 06:16:26;;;;;;;0.00;0.00;;;14.80;58.70;;;;;;5052199;28;20199;-57
2023/07/06 06:18:57;;;;;;;0.10;0.10;;;14.80;58.80;;;;;;5050777;28;20191;-57
2023/07/06 06:21:30;;;;;;;0.10;0.10;;;14.80;58.70;;;;;;5050980;28;20199;-54
2023/07/06 06:24:02;;;;;;;0.10;0.10;;;14.70;58.70;;;;;;5050670;28;20285;-55
2023/07/06 06:26:33;;;;;;;0.10;0.10;;;14.70;58.60;;;;;;5052025;28;20269;-58
2023/07/06 06:29:04;;;;;;;0.10;0.10;;;14.70;58.60;;;;;;5051025;28;20192;-59
2023/07/06 06:31:35;;;;;;;0.10;0.10;;;14.70;58.50;;;;;;5050491;28;20196;-58
2023/07/06 06:34:06;;;;;;;0.10;0.10;;;14.70;58.50;;;;;;5051826;28;20647;-59
2023/07/06 06:36:38;;;;;;;0.10;0.10;;;14.70;58.50;;;;;;5051879;28;20519;-60
2023/07/06 06:39:09;;;;;;;0.10;0.10;;;14.70;58.50;;;;;;5051714;28;20195;-57
2023/07/06 06:41:41;;;;;;;0.10;0.10;;;14.70;58.50;;;;;;5051750;28;20211;-56
2023/07/06 06:44:12;;;;;;;0.10;0.10;;;14.70;58.50;;;;;;5052471;28;20239;-53
2023/07/06 06:46:45;;;;;;;0.10;0.10;;;14.60;58.40;;;;;;5052005;28;20231;-54
2023/07/06 06:49:15;;;;;;;0.08;0.08;;;14.60;58.40;;;;;;5051544;28;20249;-57
2023/07/06 06:51:48;;;;;;;0.10;0.10;;;14.60;58.40;;;;;;5051768;28;20547;-58
2023/07/06 06:54:19;;;;;;;0.00;0.00;;;14.60;58.50;;;;;;5051648;28;20191;-59
2023/07/06 06:56:49;;;;;;;0.00;0.00;;;14.60;58.50;;;;;;5052062;28;20235;-58
2023/07/06 06:59:20;;;;;;;0.10;0.10;;;14.60;58.50;;;;;;5051767;28;20210;-59
2023/07/06 07:01:53;;;;;;;0.10;0.10;;;14.60;58.50;;;;;;5052010;28;20192;-58
2023/07/06 07:04:24;;;;;;;0.10;0.10;;;14.50;58.50;;;;;;5050859;28;20643;-56
2023/07/06 07:06:57;;;;;;;0.10;0.10;;;14.50;58.40;;;;;;5051759;28;20278;-58
2023/07/06 07:09:27;;;;;;;0.10;0.10;;;14.50;58.40;;;;;;5051251;28;20195;-56
2023/07/06 07:11:58;;;;;;;0.10;0.10;;;14.50;58.40;;;;;;5051189;28;20234;-58
2023/07/06 07:14:29;;;;;;;0.10;0.10;;;14.50;58.40;;;;;;5051104;28;20203;-59
2023/07/06 07:16:59;;;;;;;0.10;0.10;;;14.50;58.40;;;;;;5041376;28;20196;-58
2023/07/06 07:19:30;;;;;;;0.08;0.08;;;14.50;59.00;;;;;;5042275;28;20273;-57
2023/07/06 07:22:03;;;;;;;0.10;0.10;;;14.40;58.30;;;;;;5051305;28;20713;-57
2023/07/06 07:24:33;;;;;;;0.10;0.10;;;14.50;58.40;;;;;;5050187;28;20203;-55
2023/07/06 07:27:04;;;;;;;0.10;0.10;;;14.40;58.30;;;;;;5051184;28;20207;-56
2023/07/06 07:29:34;;;;;;;0.10;0.10;;;14.40;58.40;;;;;;5051550;28;20655;-54
2023/07/06 07:32:05;;;;;;;0.10;0.10;;;14.40;58.40;;;;;;5051173;28;20220;-57
2023/07/06 07:34:36;;;;;;;0.10;0.10;;;14.40;58.40;;;;;;5050675;28;20199;-56
2023/07/06 07:37:10;;;;;;;0.10;0.10;;;14.40;58.40;;;;;;5050975;28;20287;-58
2023/07/06 07:39:41;;;;;;;0.05;0.05;;;14.40;58.40;;;;;;5050524;28;20202;-57
2023/07/06 07:42:12;;;;;;;0.08;0.08;;;14.40;58.40;;;;;;5050478;28;20238;-58
2023/07/06 07:44:44;;;;;;;0.10;0.10;;;14.40;58.40;;;;;;5050585;28;20192;-57
2023/07/06 07:47:18;;;;;;;0.10;0.10;;;14.40;58.40;;;;;;5048062;28;20754;-56
2023/07/06 07:49:49;;;;;;;0.10;0.10;;;14.30;58.40;;;;;;5050119;28;20191;-55
2023/07/06 07:52:21;;;;;;;0.10;0.10;;;14.40;58.50;;;;;;5051290;28;20690;-55
2023/07/06 07:54:53;;;;;;;0.10;0.10;;;14.30;58.40;;;;;;5051532;28;20565;-57
2023/07/06 07:57:24;;;;;;;0.10;0.10;;;14.30;58.50;;;;;;5051049;28;20679;-56
2023/07/06 07:59:54;;;;;;;0.10;0.10;;;14.30;58.60;;;;;;5050734;28;20192;-58
2023/07/06 08:02:25;;;;;;;0.10;0.10;;;14.30;58.80;;;;;;5051037;28;20226;-60
2023/07/06 08:04:57;;;;;;;0.10;0.10;;;14.30;58.70;;;;;;5049526;28;20572;-61
2023/07/06 08:07:31;;;;;;;0.10;0.10;;;14.30;58.80;;;;;;5050820;28;20196;-60
2023/07/06 08:10:01;;;;;;;0.10;0.10;;;14.30;58.80;;;;;;5049913;28;20266;-60
2023/07/06 08:12:33;;;;;;;0.10;0.10;;;14.30;58.70;;;;;;5050163;28;20588;-56
2023/07/06 08:15:04;;;;;;;0.10;0.10;;;14.30;58.70;;;;;;5049965;28;20224;-58
2023/07/06 08:17:36;;;;;;;0.10;0.10;;;14.30;58.70;;;;;;5050703;28;20230;-52
2023/07/06 08:20:11;;;;;;;0.10;0.10;;;14.30;58.70;;;;;;5050807;28;20714;-52
2023/07/06 08:22:45;;;;;;;0.10;0.10;;;14.20;58.60;;;;;;5050414;28;20215;-52
2023/07/06 08:25:15;;;;;;;0.10;0.10;;;14.20;58.60;;;;;;5050378;28;20312;-56
2023/07/06 08:27:46;;;;;;;0.10;0.10;;;14.20;58.60;;;;;;5050187;28;20187;-54
2023/07/06 08:30:17;;;;;;;0.10;0.10;;;14.20;58.60;;;;;;5050397;28;20235;-56
2023/07/06 08:32:48;;;;;;;0.10;0.10;;;14.20;58.60;;;;;;5049774;28;20212;-52
2023/07/06 08:35:19;;;;;;;0.10;0.10;;;14.20;58.60;;;;;;5050920;28;20196;-56
2023/07/06 08:37:52;;;;;;;0.10;0.10;;;14.20;58.60;;;;;;5051057;28;20211;-58
2023/07/06 08:40:24;;;;;;;0.03;0.03;;;14.20;58.50;;;;;;5050702;28;20195;-57
2023/07/06 08:42:56;;;;;;;0.10;0.10;;;14.20;58.50;;;;;;5050235;28;20219;-55
2023/07/06 08:45:29;;;;;;;0.10;0.10;;;14.20;58.50;;;;;;5049865;28;20229;-55
2023/07/06 08:48:00;;;;;;;0.10;0.10;;;14.20;58.50;;;;;;5049351;28;20199;-49
2023/07/06 08:50:33;;;;;;;0.10;0.10;;;14.20;58.40;;;;;;5050008;28;20409;-51
2023/07/06 08:53:09;;;;;;;0.10;0.10;;;14.20;58.50;;;;;;5050453;28;20593;-54
2023/07/06 08:55:40;;;;;;;0.10;0.10;;;14.10;58.40;;;;;;5054262;28;20199;-52
2023/07/06 08:58:14;;;;;;;0.10;0.10;;;14.10;58.40;;;;;;5053895;28;20196;-55
2023/07/06 09:00:44;;;;;;;0.10;0.10;;;14.10;58.40;;;;;;5053541;28;20196;-54
2023/07/06 09:03:20;;;;;;;0.10;0.10;;;14.00;58.40;;;;;;5052990;28;20231;-49
2023/07/06 09:05:52;;;;;;;0.10;0.10;;;14.10;58.50;;;;;;5053414;28;20222;-52
2023/07/06 09:08:25;;;;;;;0.10;0.10;;;14.10;58.50;;;;;;5053906;28;20306;-54
2023/07/06 09:10:56;;;;;;;0.10;0.10;;;14.00;58.40;;;;;;5053776;28;20651;-49
2023/07/06 09:13:29;;;;;;;0.10;0.10;;;14.00;58.40;;;;;;5053406;28;20223;-48
2023/07/06 09:16:03;;;;;;;0.10;0.10;;;14.00;58.40;;;;;;5053691;28;20199;-55
2023/07/06 09:18:33;;;;;;;0.10;0.10;;;14.00;58.40;;;;;;5053852;28;20651;-52
2023/07/06 09:21:04;;;;;;;0.10;0.10;;;14.00;58.40;;;;;;5054088;28;20268;-55
2023/07/06 09:23:37;;;;;;;0.10;0.10;;;14.00;58.40;;;;;;5053635;28;20215;-50
2023/07/06 09:26:09;;;;;;;0.10;0.10;;;14.00;58.40;;;;;;5053636;28;20237;-51
2023/07/06 09:28:40;;;;;;;0.10;0.10;;;14.00;58.40;;;;;;5053670;28;20261;-56
2023/07/06 09:31:18;;;;;;;0.10;0.10;;;14.00;58.40;;;;;;5054102;28;20528;-50
2023/07/06 09:33:50;;;;;;;0.10;0.10;;;14.00;58.40;;;;;;5052662;28;20292;-54
2023/07/06 09:36:23;;;;;;;0.10;0.10;;;14.00;58.40;;;;;;5052920;28;20223;-61
2023/07/06 09:39:03;;;;;;;0.10;0.10;;;13.90;58.30;;;;;;5053446;28;20203;-52
2023/07/06 09:41:37;;;;;;;0.10;0.10;;;13.90;58.40;;;;;;5052964;28;20236;-54
2023/07/06 09:44:09;;;;;;;0.10;0.10;;;13.90;58.40;;;;;;5052165;28;20249;-53
2023/07/06 09:46:41;;;;;;;0.10;0.10;;;13.90;58.40;;;;;;5049447;28;20215;-51
2023/07/06 09:49:18;;;;;;;0.10;0.10;;;13.90;58.40;;;;;;5052737;28;20183;-50
2023/07/06 09:51:54;;;;;;;0.10;0.10;;;13.90;58.40;;;;;;5053085;28;20218;-50
2023/07/06 09:54:34;;;;;;;0.10;0.10;;;13.90;58.40;;;;;;5053405;28;20207;-55
2023/07/06 09:57:15;;;;;;;0.10;0.10;;;13.80;58.40;;;;;;5047861;28;20238;-52
2023/07/06 09:59:48;;;;;;;0.10;0.10;;;13.80;58.40;;;;;;5051700;28;20383;-51
2023/07/06 10:02:37;;;;;;;0.10;0.10;;;13.80;58.30;;;;;;5052536;28;20222;-53
2023/07/06 10:05:24;;;;;;;0.10;0.10;;;13.80;58.40;;;;;;5051034;28;20659;-51
2023/07/06 10:08:02;;;;;;;0.10;0.10;;;13.80;58.30;;;;;;5052738;28;20207;-50
2023/07/06 10:10:48;;;;;;;0.10;0.10;;;13.80;58.30;;;;;;5052322;28;20196;-56
2023/07/06 10:13:29;;;;;;;0.10;0.10;;;13.80;58.40;;;;;;5051240;28;20298;-52
2023/07/06 10:16:06;;;;;;;0.10;0.10;;;13.80;58.40;;;;;;5052159;28;20270;-57
2023/07/06 10:18:41;;;;;;;0.10;0.10;;;13.80;58.40;;;;;;5050724;28;20195;-60
2023/07/06 10:21:20;;;;;;;0.10;0.10;;;13.80;58.40;;;;;;5051962;28;20522;-58
2023/07/06 10:24:00;;;;;;;0.10;0.10;;;13.80;58.40;;;;;;5051690;28;20302;-52
2023/07/06 10:26:35;;;;;;;0.10;0.10;;;13.70;58.40;;;;;;5052053;28;20567;-56
2023/07/06 10:29:10;;;;;;;0.10;0.10;;;13.70;58.40;;;;;;5051555;28;20194;-54
2023/07/06 10:31:46;;;;;;;0.10;0.10;;;13.70;58.40;;;;;;5051681;28;20195;-55
2023/07/06 10:34:21;;;;;;;0.10;0.10;;;13.70;58.40;;;;;;5051637;28;20191;-55
2023/07/06 10:36:52;;;;;;;0.10;0.10;;;13.70;58.40;;;;;;5051286;28;20260;-53
2023/07/06 10:39:55;;;;;;;0.10;0.10;;;13.70;58.40;;;;;;5052445;28;20195;-53
2023/07/06 10:42:31;;;;;;;0.10;0.10;;;13.70;58.40;;;;;;5050237;28;20238;-53
2023/07/06 10:45:02;;;;;;;0.10;0.10;;;13.70;58.40;;;;;;5049562;28;20184;-53
2023/07/06 10:47:44;;;;;;;0.10;0.10;;;13.70;58.40;;;;;;5051293;28;20276;-55
2023/07/06 10:50:26;;;;;;;0.15;0.15;;;13.70;58.40;;;;;;5051525;28;20282;-55
2023/07/06 10:53:01;;;;;;;0.10;0.10;;;13.70;58.40;;;;;;5048983;28;20302;-50
2023/07/06 10:55:34;;;;;;;0.10;0.10;;;13.70;58.40;;;;;;5051785;28;20276;-54
2023/07/06 10:58:29;;;;;;;0.10;0.10;;;13.70;58.40;;;;;;5051540;28;20242;-51
2023/07/06 11:01:02;;;;;;;0.10;0.10;;;13.70;58.40;;;;;;5046566;28;20240;-58
2023/07/06 11:03:34;;;;;;;0.10;0.10;;;13.60;58.40;;;;;;5051791;28;20219;-46
2023/07/06 11:06:08;;;;;;;0.03;0.03;;;13.70;58.50;;;;;;5050559;28;20227;-54
2023/07/06 11:09:23;;;;;;;0.10;0.10;;;13.60;58.50;;;;;;5050369;28;20195;-55
2023/07/06 11:12:20;;;;;;;0.20;0.20;;;13.60;58.50;;;;;;5051280;28;20666;-55
2023/07/06 11:15:12;;;;;;;0.10;0.10;;;13.60;58.40;;;;;;5050612;28;20632;-58
2023/07/06 11:17:48;;;;;;;0.10;0.10;;;13.60;58.40;;;;;;5048607;28;20191;-54
2023/07/06 11:20:23;;;;;;;0.10;0.10;;;13.60;58.40;;;;;;5049170;28;20191;-58
2023/07/06 11:22:59;;;;;;;0.10;0.10;;;13.60;58.50;;;;;;5051495;28;20246;-53
2023/07/06 11:25:31;;;;;;;0.10;0.10;;;13.60;58.50;;;;;;5051100;28;20198;-52
2023/07/06 11:28:06;;;;;;;0.10;0.10;;;13.60;58.50;;;;;;5051280;28;20195;-56
2023/07/06 11:30:43;;;;;;;0.10;0.10;;;13.60;58.50;;;;;;5049090;28;20196;-52
2023/07/06 11:33:21;;;;;;;0.10;0.10;;;13.60;58.50;;;;;;5047842;28;20233;-50
2023/07/06 11:36:06;;;;;;;0.10;0.10;;;13.60;58.50;;;;;;5050875;28;20187;-61
2023/07/06 11:39:05;;;;;;;0.10;0.10;;;13.60;58.50;;;;;;5048783;28;20199;-53
2023/07/06 11:41:44;;;;;;;0.10;0.10;;;13.50;58.40;;;;;;5048655;28;20660;-56
2023/07/06 11:44:39;;;;;;;0.10;0.10;;;13.50;58.30;;;;;;5048730;28;20553;-57
2023/07/06 11:47:38;;;;;;;0.13;0.13;;;13.50;58.30;;;;;;5050179;28;20227;-58
2023/07/06 11:50:14;;;;;;;0.10;0.10;;;13.50;58.30;;;;;;5049409;28;20199;-55
2023/07/06 11:53:11;;;;;;;0.10;0.10;;;13.50;58.30;;;;;;5050662;28;20210;-53
2023/07/06 11:55:54;;;;;;;0.13;0.13;;;13.50;58.40;;;;;;5050959;28;20187;-58
2023/07/06 12:01:21;;;;;;;0.15;0.15;;;13.50;58.40;;;;;;5049296;28;20199;-58
2023/07/06 12:04:02;;;;;;;0.10;0.10;;;13.40;58.40;;;;;;5049751;28;20218;-48
2023/07/06 12:06:33;;;;;;;0.10;0.10;;;13.40;58.40;;;;;;5050456;28;20211;-49
2023/07/06 12:09:06;;;;;;;0.10;0.10;;;13.40;58.40;;;;;;5049775;28;20196;-53
2023/07/06 12:11:39;;;;;;;0.10;0.10;;;13.40;58.40;;;;;;5050518;28;20187;-49
2023/07/06 12:14:20;;;;;;;0.10;0.10;;;13.40;58.40;;;;;;5050527;28;20219;-52
2023/07/06 12:16:54;;;;;;;0.10;0.10;;;13.40;58.30;;;;;;5051122;28;20198;-55
2023/07/06 12:19:28;;;;;;;0.10;0.10;;;13.40;58.30;;;;;;5051412;28;20222;-50
2023/07/06 12:21:59;;;;;;;0.10;0.10;;;13.40;58.30;;;;;;5051155;28;20206;-47
2023/07/06 12:24:32;;;;;;;0.10;0.10;;;13.40;58.30;;;;;;5051115;28;20729;-50
2023/07/06 12:27:05;;;;;;;0.20;0.20;;;13.40;58.30;;;;;;5050410;28;20231;-52
2023/07/06 12:29:36;;;;;;;0.10;0.10;;;13.40;58.30;;;;;;5052882;28;20253;-52
2023/07/06 12:32:13;;;;;;;0.10;0.10;;;13.40;58.30;;;;;;5054567;28;20222;-46
2023/07/06 12:34:46;;;;;;;0.10;0.10;;;13.30;58.20;;;;;;5054497;28;20222;-49
2023/07/06 12:37:18;;;;;;;0.10;0.10;;;13.30;58.20;;;;;;5054668;28;20195;-47
2023/07/06 12:39:50;;;;;;;0.10;0.10;;;13.30;58.20;;;;;;5054943;28;20547;-47
2023/07/06 12:42:22;;;;;;;0.10;0.10;;;13.30;58.20;;;;;;5054623;28;20590;-49
2023/07/06 12:44:54;;;;;;;0.10;0.10;;;13.30;58.20;;;;;;5054365;28;20188;-46
2023/07/06 12:47:27;;;;;;;0.10;0.10;;;13.30;58.20;;;;;;5054364;28;20223;-47
2023/07/06 12:50:04;;;;;;;0.10;0.10;;;13.30;58.20;;;;;;5054674;28;20575;-47
2023/07/06 12:52:36;;;;;;;0.10;0.10;;;13.30;58.20;;;;;;5054782;28;20223;-50
2023/07/06 12:55:14;;;;;;;0.10;0.10;;;13.30;58.10;;;;;;5054192;28;20565;-48
2023/07/06 12:57:45;;;;;;;0.10;0.10;;;13.30;58.10;;;;;;5053987;28;20206;-52
2023/07/06 13:00:24;;;;;;;0.10;0.10;;;13.30;58.10;;;;;;5053713;28;20195;-45
2023/07/06 13:02:58;;;;;;;0.10;0.10;;;13.30;58.10;;;;;;5054327;28;20640;-49
2023/07/06 13:05:33;;;;;;;0.10;0.10;;;13.20;58.10;;;;;;5054055;28;20198;-47
2023/07/06 13:08:08;;;;;;;0.10;0.10;;;13.20;58.10;;;;;;5053952;28;20343;-52
2023/07/06 13:10:39;;;;;;;0.20;0.20;;;13.20;58.10;;;;;;5054202;28;20198;-52
2023/07/06 13:13:20;;;;;;;0.10;0.10;;;13.20;58.00;;;;;;5054263;28;20317;-45
2023/07/06 13:15:57;;;;;;;0.10;0.10;;;13.20;58.10;;;;;;5054141;28;20203;-49
2023/07/06 13:18:28;;;;;;;0.10;0.10;;;13.20;58.10;;;;;;5053705;28;20207;-46
2023/07/06 13:21:00;;;;;;;0.10;0.10;;;13.20;58.10;;;;;;5053835;28;20257;-46
2023/07/06 13:23:31;;;;;;;0.10;0.10;;;13.20;58.10;;;;;;5053478;28;20211;-48
2023/07/06 13:26:02;;;;;;;0.10;0.10;;;13.20;58.00;;;;;;5053316;28;20550;-53